Time;durP1;ratioP1;P1;durP2;ratioP2;P2;SDS_P1;SDS_P2;PMS_P1;PMS_P2;Temp;Humidity;BMP_temperature;BMP_pressure;BME280_temperature;BME280_humidity;BME280_pressure;Samples;Min_cycle;Max_cycle;Signal;HPM_P1;HPM_P2
2022/04/19 00:01:11;;;;;;;1.80;1.48;;;21.30;47.90;;;;;;4935691;29;20373;-73
2022/04/19 00:03:37;;;;;;;2.03;1.60;;;21.30;47.90;;;;;;4935672;29;20083;-73
2022/04/19 00:06:04;;;;;;;1.92;1.40;;;21.30;47.80;;;;;;4935838;29;20090;-72
2022/04/19 00:08:30;;;;;;;2.60;1.65;;;21.30;47.80;;;;;;4935058;28;20432;-73
2022/04/19 00:10:55;;;;;;;3.03;1.60;;;21.30;47.80;;;;;;4935452;29;20028;-72
2022/04/19 00:13:21;;;;;;;1.92;1.55;;;21.30;47.80;;;;;;4935409;29;20477;-72
2022/04/19 00:15:47;;;;;;;2.08;1.55;;;21.30;47.80;;;;;;4936703;29;20023;-72
2022/04/19 00:18:14;;;;;;;2.08;1.45;;;21.30;47.80;;;;;;4934757;29;20027;-72
2022/04/19 00:20:42;;;;;;;2.25;1.40;;;21.30;47.70;;;;;;4919562;29;20035;-73
2022/04/19 00:23:15;;;;;;;1.83;1.33;;;21.30;47.30;;;;;;4936383;29;20082;-72
2022/04/19 00:25:42;;;;;;;2.20;1.40;;;21.30;47.70;;;;;;4919362;29;20125;-72
2022/04/19 00:28:09;;;;;;;2.38;1.40;;;21.30;47.60;;;;;;4935848;29;20032;-72
2022/04/19 00:30:35;;;;;;;2.30;1.55;;;21.30;47.60;;;;;;4935055;29;20038;-72
2022/04/19 00:33:01;;;;;;;2.40;1.70;;;21.30;47.70;;;;;;4935166;29;20047;-72
2022/04/19 00:35:28;;;;;;;2.35;1.60;;;21.30;47.70;;;;;;4935015;29;20063;-73
2022/04/19 00:37:53;;;;;;;2.55;1.77;;;21.30;47.70;;;;;;4934629;29;20297;-73
2022/04/19 00:40:19;;;;;;;2.15;1.40;;;21.30;47.60;;;;;;4935178;29;20455;-72
2022/04/19 00:42:46;;;;;;;2.10;1.50;;;21.30;47.70;;;;;;4934825;29;20031;-72
2022/04/19 00:45:12;;;;;;;1.92;1.50;;;21.30;47.70;;;;;;4934801;29;20024;-72
2022/04/19 00:47:38;;;;;;;2.95;1.65;;;21.30;47.70;;;;;;4918731;29;20059;-72
2022/04/19 00:50:07;;;;;;;3.22;1.60;;;21.30;47.70;;;;;;4934694;29;20038;-72
2022/04/19 00:52:40;;;;;;;2.08;1.50;;;21.30;47.70;;;;;;4934824;29;20440;-72
2022/04/19 00:55:08;;;;;;;1.60;1.30;;;21.20;47.70;;;;;;4934871;29;20492;-73
2022/04/19 00:57:41;;;;;;;2.10;1.55;;;21.30;47.70;;;;;;4934201;29;20382;-73
2022/04/19 01:00:12;;;;;;;3.08;1.60;;;21.30;47.80;;;;;;4934657;29;20032;-72
2022/04/19 01:02:42;;;;;;;2.88;1.70;;;21.20;47.70;;;;;;4934605;29;20032;-72
2022/04/19 01:05:11;;;;;;;1.92;1.50;;;21.20;47.60;;;;;;4919263;29;20049;-72
2022/04/19 01:07:38;;;;;;;2.15;1.45;;;21.20;47.70;;;;;;4933077;29;20095;-72
2022/04/19 01:10:06;;;;;;;2.38;1.67;;;21.30;47.70;;;;;;4934509;29;20268;-72
2022/04/19 01:15:18;;;;;;;2.10;1.30;;;21.30;47.70;;;;;;4934218;29;20032;-72
2022/04/19 01:18:02;;;;;;;2.28;1.40;;;21.20;47.70;;;;;;4919984;29;20452;-72
2022/04/19 01:20:28;;;;;;;2.35;1.60;;;21.20;47.70;;;;;;4935396;29;20434;-72
2022/04/19 01:22:55;;;;;;;2.45;1.33;;;21.30;47.70;;;;;;4934171;29;20027;-72
2022/04/19 01:25:25;;;;;;;;;;;21.20;47.70;;;;;;4934460;29;20039;-71
2022/04/19 01:27:52;;;;;;;1.90;1.42;;;21.20;47.60;;;;;;4933857;29;19921;-72
2022/04/19 01:30:19;;;;;;;3.05;1.30;;;21.30;47.60;;;;;;4933857;29;20185;-72
2022/04/19 01:32:46;;;;;;;2.33;1.60;;;21.30;47.60;;;;;;4918628;29;20035;-72
2022/04/19 01:35:16;;;;;;;2.05;1.40;;;21.20;47.60;;;;;;4918124;29;20031;-72
2022/04/19 01:37:51;;;;;;;2.28;1.60;;;21.30;47.60;;;;;;4933370;29;20035;-72
2022/04/19 01:40:23;;;;;;;2.10;1.38;;;21.20;47.50;;;;;;4933742;29;20400;-72
2022/04/19 01:42:59;;;;;;;2.10;1.45;;;21.20;47.50;;;;;;4934006;29;20032;-72
2022/04/19 01:45:31;;;;;;;1.80;1.40;;;21.20;47.50;;;;;;4918076;29;20043;-72
2022/04/19 01:48:00;;;;;;;2.65;1.50;;;21.30;47.60;;;;;;4934630;29;20046;-72
2022/04/19 01:50:28;;;;;;;1.95;1.45;;;21.20;47.60;;;;;;4933566;29;20099;-72
2022/04/19 01:53:02;;;;;;;2.17;1.60;;;21.20;47.60;;;;;;4933613;29;20036;-72
2022/04/19 01:55:29;;;;;;;3.00;1.70;;;21.20;47.60;;;;;;4933435;29;20031;-72
2022/04/19 01:58:00;;;;;;;2.20;1.50;;;21.20;47.60;;;;;;4917701;29;20035;-72
2022/04/19 02:00:37;;;;;;;2.30;1.67;;;21.20;47.60;;;;;;4933436;29;20238;-72
2022/04/19 02:03:04;;;;;;;1.88;1.40;;;21.20;47.60;;;;;;4933665;29;20433;-72
2022/04/19 02:05:30;;;;;;;2.25;1.45;;;21.20;47.60;;;;;;4902057;29;20083;-72
2022/04/19 02:08:00;;;;;;;2.00;1.50;;;21.20;47.60;;;;;;4933060;29;20071;-72
2022/04/19 02:10:27;;;;;;;2.17;1.48;;;21.20;47.60;;;;;;4933109;29;20505;-72
2022/04/19 02:12:53;;;;;;;2.03;1.42;;;21.20;47.60;;;;;;4933209;29;20067;-72
2022/04/19 02:15:25;;;;;;;2.25;1.50;;;21.20;47.60;;;;;;4934398;29;20141;-72
2022/04/19 02:17:54;;;;;;;2.47;1.45;;;21.20;47.60;;;;;;4932802;29;20024;-72
2022/04/19 02:20:20;;;;;;;1.63;1.25;;;21.20;47.50;;;;;;4933051;29;20126;-72
2022/04/19 02:22:46;;;;;;;2.05;1.52;;;21.20;47.50;;;;;;4933469;29;20040;-71
2022/04/19 02:25:14;;;;;;;2.08;1.45;;;21.20;47.60;;;;;;4934158;29;20123;-72
2022/04/19 02:27:41;;;;;;;2.58;1.73;;;21.20;47.50;;;;;;4917690;29;20067;-71
2022/04/19 02:30:14;;;;;;;1.70;1.30;;;21.20;47.60;;;;;;4918260;29;20039;-71
2022/04/19 02:32:47;;;;;;;1.48;1.27;;;21.20;47.50;;;;;;4933531;29;20062;-72
2022/04/19 02:35:18;;;;;;;2.58;1.73;;;21.20;47.50;;;;;;4933545;29;20635;-71
2022/04/19 02:37:52;;;;;;;2.13;1.38;;;21.20;47.50;;;;;;4920676;29;20042;-72
2022/04/19 02:40:23;;;;;;;1.90;1.35;;;21.20;47.50;;;;;;4936488;29;20449;-72
2022/04/19 02:42:50;;;;;;;1.80;1.48;;;21.20;47.50;;;;;;4933496;29;20027;-72
2022/04/19 02:45:19;;;;;;;2.40;1.42;;;21.20;47.50;;;;;;4918777;29;20024;-72
2022/04/19 02:47:46;;;;;;;2.90;1.60;;;21.20;47.50;;;;;;4937397;29;20422;-71
2022/04/19 02:50:12;;;;;;;2.78;1.50;;;21.20;47.50;;;;;;4938360;29;20039;-72
2022/04/19 02:52:38;;;;;;;2.88;1.60;;;21.20;47.40;;;;;;4919092;29;20107;-73
2022/04/19 02:55:04;;;;;;;1.85;1.40;;;21.20;47.40;;;;;;4917632;29;20408;-72
2022/04/19 02:57:30;;;;;;;2.13;1.50;;;21.20;47.40;;;;;;4934677;29;20032;-72
2022/04/19 02:59:56;;;;;;;1.85;1.40;;;21.20;47.50;;;;;;4934477;28;20027;-72
2022/04/19 03:02:21;;;;;;;2.25;1.42;;;21.20;47.50;;;;;;4917354;29;20039;-72
2022/04/19 03:04:47;;;;;;;1.80;1.40;;;21.20;47.50;;;;;;4901302;29;20032;-72
2022/04/19 03:07:14;;;;;;;2.65;1.48;;;21.20;47.40;;;;;;4901150;29;20075;-72
2022/04/19 03:09:41;;;;;;;2.03;1.50;;;21.20;47.50;;;;;;4917146;29;20042;-72
2022/04/19 03:12:10;;;;;;;1.85;1.50;;;21.20;47.50;;;;;;4932693;29;20031;-72
2022/04/19 03:14:38;;;;;;;2.40;1.50;;;21.20;47.50;;;;;;4932707;29;20032;-72
2022/04/19 03:17:05;;;;;;;2.45;1.50;;;21.20;47.50;;;;;;4916588;29;20040;-72
2022/04/19 03:19:32;;;;;;;2.10;1.50;;;21.20;47.40;;;;;;4916712;29;20040;-72
2022/04/19 03:21:58;;;;;;;3.20;1.70;;;21.20;47.40;;;;;;4916701;29;20122;-72
2022/04/19 03:29:53;;;;;;;2.40;1.60;;;21.20;47.40;;;;;;4933305;29;20119;-72
2022/04/19 03:32:19;;;;;;;1.92;1.42;;;21.20;47.40;;;;;;4936204;29;20122;-72
2022/04/19 03:34:49;;;;;;;1.70;1.15;;;21.10;47.30;;;;;;4936075;29;20060;-72
2022/04/19 03:37:15;;;;;;;2.33;1.42;;;21.20;47.40;;;;;;4935625;29;20027;-73
2022/04/19 03:39:41;;;;;;;3.92;1.40;;;21.20;47.40;;;;;;4935952;29;20047;-72
2022/04/19 03:42:08;;;;;;;2.08;1.50;;;21.10;47.30;;;;;;4937121;29;20110;-73
2022/04/19 03:44:34;;;;;;;1.80;1.40;;;21.20;47.30;;;;;;4920134;29;20058;-72
2022/04/19 03:47:09;;;;;;;2.10;1.33;;;21.20;47.30;;;;;;4919871;29;20036;-72
2022/04/19 03:49:37;;;;;;;1.95;1.40;;;21.10;47.30;;;;;;4935796;29;20047;-72
2022/04/19 03:52:06;;;;;;;2.28;1.38;;;21.20;47.30;;;;;;4936070;29;20042;-72
2022/04/19 03:54:34;;;;;;;3.10;1.50;;;21.20;47.30;;;;;;4935880;29;20036;-72
2022/04/19 03:57:08;;;;;;;2.45;1.30;;;21.20;47.30;;;;;;4919536;29;20047;-72
2022/04/19 03:59:41;;;;;;;2.38;1.33;;;21.20;47.30;;;;;;4919982;29;20175;-72
2022/04/19 04:02:08;;;;;;;2.58;1.38;;;21.20;47.30;;;;;;4935660;29;20051;-73
2022/04/19 04:04:36;;;;;;;2.90;1.63;;;21.20;47.20;;;;;;4919792;29;20046;-71
2022/04/19 04:07:04;;;;;;;3.58;1.60;;;21.20;47.30;;;;;;4919449;29;20043;-72
2022/04/19 04:16:16;;;;;;;;;;;;;;;;;;;;;
2022/04/19 04:19:21;;;;;;;;;;;21.20;47.20;;;;;;4978216;23;20048;-74
2022/04/19 04:21:47;;;;;;;2.55;1.60;;;21.20;47.20;;;;;;4932164;29;20442;-74
2022/04/19 04:24:13;;;;;;;2.85;1.80;;;21.10;47.20;;;;;;4935071;29;20027;-75
2022/04/19 04:26:41;;;;;;;2.45;1.58;;;21.10;47.20;;;;;;4934905;29;20501;-75
2022/04/19 04:29:08;;;;;;;2.90;1.67;;;21.10;47.20;;;;;;4934804;29;20481;-74
2022/04/19 04:31:38;;;;;;;2.10;1.58;;;21.10;47.20;;;;;;4934981;29;20032;-74
2022/04/19 04:34:07;;;;;;;2.70;1.58;;;21.20;47.20;;;;;;4919828;29;20110;-75
2022/04/19 04:36:33;;;;;;;2.15;1.48;;;21.10;47.20;;;;;;4934824;29;20032;-74
2022/04/19 04:38:59;;;;;;;2.53;1.70;;;21.20;47.20;;;;;;4935703;29;20042;-74
2022/04/19 04:41:33;;;;;;;2.00;1.45;;;21.10;47.20;;;;;;4934018;29;20396;-74
2022/04/19 04:44:02;;;;;;;2.80;1.60;;;21.20;47.20;;;;;;4934914;29;20111;-74
2022/04/19 04:51:56;;;;;;;3.35;1.70;;;21.10;47.10;;;;;;4934634;29;20024;-74
2022/04/19 04:54:22;;;;;;;2.00;1.65;;;21.20;47.20;;;;;;4934719;29;20031;-74
2022/04/19 04:56:48;;;;;;;1.90;1.50;;;21.20;47.20;;;;;;4934697;29;20107;-74
2022/04/19 04:59:14;;;;;;;3.13;1.60;;;21.20;47.10;;;;;;4934249;29;20034;-73
2022/04/19 05:01:39;;;;;;;2.90;1.70;;;21.10;47.10;;;;;;4934374;29;20439;-73
2022/04/19 05:04:10;;;;;;;2.50;1.55;;;21.10;47.00;;;;;;4934430;29;20405;-73
2022/04/19 05:06:36;;;;;;;1.83;1.40;;;21.10;47.10;;;;;;4934352;29;20036;-73
2022/04/19 05:09:02;;;;;;;2.85;1.67;;;21.10;47.00;;;;;;4902624;29;20035;-73
2022/04/19 05:11:31;;;;;;;3.50;2.00;;;21.10;47.00;;;;;;4934331;29;20107;-74
2022/04/19 05:13:57;;;;;;;2.78;1.60;;;21.10;47.00;;;;;;4934028;29;20498;-73
2022/04/19 05:16:23;;;;;;;2.33;1.65;;;21.20;47.00;;;;;;4934313;29;20042;-74
2022/04/19 05:18:50;;;;;;;2.47;1.67;;;21.20;47.00;;;;;;4917767;29;20614;-74
2022/04/19 05:21:16;;;;;;;2.75;1.90;;;21.20;47.00;;;;;;4918197;29;20030;-74
2022/04/19 05:23:44;;;;;;;3.30;1.80;;;21.20;47.00;;;;;;4918558;29;20066;-74
2022/04/19 05:26:12;;;;;;;2.28;1.60;;;21.10;47.00;;;;;;4934300;29;20060;-74
2022/04/19 05:28:38;;;;;;;2.90;1.88;;;21.20;47.00;;;;;;4933532;29;20257;-74
2022/04/19 05:31:07;;;;;;;2.43;1.83;;;21.20;46.90;;;;;;4933910;29;20413;-74
2022/04/19 05:33:33;;;;;;;3.22;1.88;;;21.20;47.00;;;;;;4933929;29;20039;-74
2022/04/19 05:35:58;;;;;;;3.78;2.00;;;21.20;47.00;;;;;;4933685;29;20067;-74
2022/04/19 05:38:27;;;;;;;2.47;1.52;;;21.20;46.90;;;;;;4933337;29;20028;-74
2022/04/19 05:40:53;;;;;;;3.30;2.10;;;21.20;46.90;;;;;;4933718;29;20043;-74
2022/04/19 05:43:19;;;;;;;2.80;1.88;;;21.20;47.00;;;;;;4934783;29;20038;-74
2022/04/19 05:45:46;;;;;;;2.25;1.60;;;21.20;47.00;;;;;;4933600;29;20082;-74
2022/04/19 05:48:12;;;;;;;4.13;1.80;;;21.20;46.90;;;;;;4917521;29;20042;-74
2022/04/19 05:50:39;;;;;;;2.55;1.77;;;21.20;47.00;;;;;;4933421;29;20062;-74
2022/04/19 05:53:05;;;;;;;2.15;1.50;;;21.10;46.80;;;;;;4933425;29;20031;-75
2022/04/19 05:55:32;;;;;;;3.90;2.03;;;21.20;46.90;;;;;;4933610;29;20401;-75
2022/04/19 05:57:59;;;;;;;2.78;1.70;;;21.20;46.90;;;;;;4932798;29;20436;-74
2022/04/19 06:00:25;;;;;;;2.47;1.63;;;21.20;46.90;;;;;;4933587;29;20032;-73
2022/04/19 06:05:38;;;;;;;2.78;1.73;;;21.20;46.90;;;;;;4933311;29;20453;-74
2022/04/19 06:08:05;;;;;;;2.80;1.75;;;21.20;46.90;;;;;;4933023;29;20039;-73
2022/04/19 06:10:31;;;;;;;3.45;2.17;;;21.20;46.90;;;;;;4917017;29;20083;-74
2022/04/19 06:12:57;;;;;;;2.47;1.70;;;21.20;46.90;;;;;;4933210;29;20118;-74
2022/04/19 06:15:24;;;;;;;2.25;1.83;;;21.20;46.90;;;;;;4933225;29;20111;-74
2022/04/19 06:17:49;;;;;;;3.33;2.00;;;21.20;46.90;;;;;;4932643;29;20471;-74
2022/04/19 06:20:38;;;;;;;3.80;2.03;;;21.20;46.80;;;;;;4933100;29;20035;-74
2022/04/19 06:23:05;;;;;;;2.75;1.63;;;21.20;46.90;;;;;;4932915;29;20496;-74
2022/04/19 06:25:30;;;;;;;2.15;1.65;;;21.20;46.80;;;;;;4932922;29;20042;-74
2022/04/19 06:27:57;;;;;;;2.83;1.88;;;21.20;46.90;;;;;;4932533;29;20088;-74
2022/04/19 06:30:24;;;;;;;3.50;2.17;;;21.20;46.90;;;;;;4933079;29;20040;-74
2022/04/19 06:32:51;;;;;;;2.42;1.83;;;21.20;46.90;;;;;;4934129;29;20028;-74
2022/04/19 06:35:17;;;;;;;3.70;2.10;;;21.20;46.90;;;;;;4932848;29;20102;-74
2022/04/19 06:37:43;;;;;;;3.38;1.90;;;21.30;47.10;;;;;;4932536;29;20576;-74
2022/04/19 06:40:12;;;;;;;2.55;1.77;;;21.20;46.90;;;;;;4932829;29;20050;-74
2022/04/19 06:42:38;;;;;;;4.82;1.98;;;21.20;46.90;;;;;;4932878;29;20035;-74
2022/04/19 06:45:18;;;;;;;3.22;2.17;;;21.20;47.00;;;;;;4932760;29;20485;-74
2022/04/19 06:48:05;;;;;;;2.72;1.88;;;21.20;46.90;;;;;;4932702;29;20071;-74
2022/04/19 06:50:34;;;;;;;2.50;1.77;;;21.20;47.00;;;;;;4932672;29;20084;-74
2022/04/19 06:53:08;;;;;;;3.03;1.98;;;21.20;47.10;;;;;;4933011;29;20069;-74
2022/04/19 06:55:53;;;;;;;3.17;1.80;;;21.20;47.10;;;;;;4932760;29;20401;-74
2022/04/19 06:58:20;;;;;;;3.28;2.03;;;21.30;47.20;;;;;;4933298;29;20039;-74
2022/04/19 07:00:46;;;;;;;3.28;1.63;;;21.30;47.20;;;;;;4901024;29;20122;-75
2022/04/19 07:03:12;;;;;;;3.75;2.00;;;21.30;47.30;;;;;;4932719;29;20079;-74
2022/04/19 07:05:57;;;;;;;2.50;1.90;;;21.30;47.30;;;;;;4936262;29;20031;-74
2022/04/19 07:08:23;;;;;;;3.10;1.83;;;21.30;47.30;;;;;;4936259;29;20036;-74
2022/04/19 07:10:48;;;;;;;2.92;1.88;;;21.30;47.30;;;;;;4937574;29;20087;-74
2022/04/19 07:13:38;;;;;;;4.25;2.03;;;21.30;47.30;;;;;;4937154;29;20062;-75
2022/04/19 07:16:05;;;;;;;3.13;1.90;;;21.30;47.40;;;;;;4936385;29;20039;-74
2022/04/19 07:18:32;;;;;;;3.58;2.00;;;21.30;47.40;;;;;;4904039;29;20393;-74
2022/04/19 07:26:40;;;;;;;3.55;2.15;;;21.40;47.40;;;;;;4936634;29;20030;-75
2022/04/19 07:29:10;;;;;;;3.20;2.15;;;21.40;47.40;;;;;;4935873;29;20031;-74
2022/04/19 07:31:44;;;;;;;2.78;1.77;;;21.40;47.50;;;;;;4935976;29;20027;-74
2022/04/19 07:34:24;;;;;;;2.95;2.00;;;21.40;47.40;;;;;;4936247;29;20485;-74
2022/04/19 07:36:50;;;;;;;3.95;2.08;;;21.40;47.40;;;;;;4936016;29;20063;-74
2022/04/19 07:39:15;;;;;;;3.33;1.88;;;21.40;47.40;;;;;;4935925;29;20086;-74
2022/04/19 07:41:47;;;;;;;3.15;1.95;;;21.40;47.40;;;;;;4935994;29;20042;-74
2022/04/19 07:44:15;;;;;;;2.28;1.70;;;21.40;47.40;;;;;;4920382;29;20031;-73
2022/04/19 07:46:45;;;;;;;3.13;2.08;;;21.40;47.40;;;;;;4935663;29;20485;-75
2022/04/19 07:49:11;;;;;;;2.55;1.80;;;21.40;47.40;;;;;;4935741;29;20027;-74
2022/04/19 07:51:38;;;;;;;3.47;2.03;;;21.50;47.50;;;;;;4920170;29;20037;-74
2022/04/19 07:54:05;;;;;;;3.70;2.03;;;21.40;47.40;;;;;;4935833;29;20198;-74
2022/04/19 07:56:31;;;;;;;3.00;2.10;;;21.40;47.40;;;;;;4935614;29;20077;-74
2022/04/19 07:58:58;;;;;;;2.92;2.03;;;21.50;47.50;;;;;;4935340;29;20020;-73
2022/04/19 08:01:24;;;;;;;3.72;2.13;;;21.40;47.50;;;;;;4935588;29;20038;-74
2022/04/19 08:03:51;;;;;;;3.50;1.98;;;21.50;47.50;;;;;;4919947;29;20098;-74
2022/04/19 08:06:16;;;;;;;3.97;2.40;;;21.50;47.50;;;;;;4935562;29;20452;-73
2022/04/19 08:08:43;;;;;;;3.28;2.05;;;21.50;47.50;;;;;;4935199;29;20028;-74
2022/04/19 08:11:09;;;;;;;3.95;1.80;;;21.50;47.50;;;;;;4935291;29;20110;-75
2022/04/19 08:13:35;;;;;;;2.70;1.83;;;21.40;47.50;;;;;;4935457;29;20457;-74
2022/04/19 08:16:01;;;;;;;2.75;1.65;;;21.50;47.50;;;;;;4935390;29;20122;-74
2022/04/19 08:18:27;;;;;;;3.25;2.13;;;21.50;47.50;;;;;;4934679;29;20051;-74
2022/04/19 08:20:54;;;;;;;2.78;1.88;;;21.50;47.50;;;;;;4936531;29;20034;-75
2022/04/19 08:23:21;;;;;;;3.83;1.85;;;21.50;47.50;;;;;;4935313;29;20374;-74
2022/04/19 08:25:54;;;;;;;2.65;1.90;;;21.50;47.50;;;;;;4935149;29;20448;-74
2022/04/19 08:28:20;;;;;;;2.95;2.00;;;21.50;47.40;;;;;;4919097;29;20039;-74
2022/04/19 08:30:46;;;;;;;2.90;2.10;;;21.50;47.50;;;;;;4935210;29;20413;-74
2022/04/19 08:33:17;;;;;;;4.05;2.00;;;21.50;47.50;;;;;;4934941;29;20130;-74
2022/04/19 08:35:43;;;;;;;3.15;2.05;;;21.50;47.50;;;;;;4935041;29;20111;-74
2022/04/19 08:38:09;;;;;;;3.17;2.08;;;21.50;47.50;;;;;;4918604;29;20039;-75
2022/04/19 08:40:34;;;;;;;2.83;1.83;;;21.50;47.50;;;;;;4919164;29;20031;-75
2022/04/19 08:43:03;;;;;;;3.57;2.00;;;21.50;47.50;;;;;;4934972;29;20029;-74
2022/04/19 08:45:29;;;;;;;2.90;2.15;;;21.50;47.50;;;;;;4936247;29;20326;-74
2022/04/19 08:47:57;;;;;;;2.92;1.98;;;21.50;47.50;;;;;;4935171;29;20038;-74
2022/04/19 08:50:22;;;;;;;3.20;1.92;;;21.50;47.60;;;;;;4934856;29;20495;-74
2022/04/19 08:57:29;;;;;;;3.58;2.10;;;21.50;47.60;;;;;;4935972;29;20251;-74
2022/04/19 08:58:18;;;;;;;3.58;1.95;;;21.50;47.60;;;;;;4935198;29;20393;-75
2022/04/19 09:00:43;;;;;;;3.08;2.03;;;21.50;47.60;;;;;;4935812;29;20064;-75
2022/04/19 09:03:10;;;;;;;3.35;2.00;;;21.50;47.70;;;;;;4935535;29;20083;-75
2022/04/19 09:05:49;;;;;;;2.92;2.03;;;21.50;47.70;;;;;;4935702;29;20473;-74
2022/04/19 09:08:15;;;;;;;3.92;2.15;;;21.50;47.70;;;;;;4934389;29;20043;-75
2022/04/19 09:10:40;;;;;;;2.85;1.95;;;21.50;47.70;;;;;;4918572;29;20031;-75
2022/04/19 09:13:11;;;;;;;3.40;2.10;;;21.60;47.80;;;;;;4935443;29;20032;-75
2022/04/19 09:15:45;;;;;;;3.67;2.25;;;21.50;47.70;;;;;;4935660;29;20393;-74
2022/04/19 09:18:32;;;;;;;3.85;2.25;;;21.50;47.70;;;;;;4933680;29;20028;-75
2022/04/19 09:20:59;;;;;;;3.88;1.92;;;21.50;47.70;;;;;;4935478;29;20031;-74
2022/04/19 09:23:26;;;;;;;4.72;2.83;;;21.50;47.70;;;;;;4914950;29;20025;-74
2022/04/19 09:25:57;;;;;;;3.45;2.10;;;21.50;46.40;;;;;;4914481;29;20052;-73
2022/04/19 09:28:24;;;;;;;6.38;2.95;;;21.50;46.90;;;;;;4915323;29;20032;-74
2022/04/19 09:30:52;;;;;;;6.32;2.70;;;21.50;45.60;;;;;;4916073;29;20036;-75
2022/04/19 09:33:21;;;;;;;4.15;2.30;;;21.50;46.10;;;;;;4915862;29;20504;-75
2022/04/19 09:35:48;;;;;;;5.82;2.25;;;21.50;46.20;;;;;;4909910;29;20036;-75
2022/04/19 09:38:14;;;;;;;9.00;2.53;;;21.50;46.40;;;;;;4895600;29;20132;-75
2022/04/19 09:40:43;;;;;;;4.07;2.30;;;21.50;46.40;;;;;;4911838;29;20493;-72
2022/04/19 09:43:17;;;;;;;4.93;2.53;;;21.60;46.50;;;;;;4895279;29;20028;-73
2022/04/19 09:45:54;;;;;;;4.60;2.13;;;21.50;46.60;;;;;;4928925;29;20500;-73
2022/04/19 09:48:22;;;;;;;4.60;2.45;;;21.60;46.70;;;;;;4931186;29;20031;-74
2022/04/19 09:51:04;;;;;;;5.68;2.17;;;21.60;46.70;;;;;;4927399;29;20094;-73
2022/04/19 09:53:46;;;;;;;3.85;2.28;;;21.60;46.70;;;;;;4914475;29;20155;-73
2022/04/19 09:56:13;;;;;;;6.45;2.38;;;21.60;46.70;;;;;;4914742;29;20055;-74
2022/04/19 09:58:41;;;;;;;6.60;2.50;;;21.60;46.70;;;;;;4913818;29;20033;-74
2022/04/19 10:01:07;;;;;;;5.88;2.38;;;21.70;46.80;;;;;;4911065;29;20115;-74
2022/04/19 10:09:05;;;;;;;3.53;2.22;;;21.70;46.80;;;;;;4934437;23;20078;-74
2022/04/19 10:11:31;;;;;;;4.68;2.22;;;21.60;46.80;;;;;;4945463;28;20058;-74
2022/04/19 10:13:58;;;;;;;8.98;2.72;;;21.60;46.80;;;;;;4934284;29;20082;-75
2022/04/19 10:16:24;;;;;;;4.75;2.63;;;21.60;47.00;;;;;;4934343;29;20039;-75
2022/04/19 10:18:50;;;;;;;7.20;2.33;;;21.60;47.00;;;;;;4927111;29;20317;-75
2022/04/19 10:21:19;;;;;;;4.47;2.13;;;21.60;47.00;;;;;;4914171;29;20032;-74
2022/04/19 10:23:46;;;;;;;5.45;2.55;;;21.60;47.00;;;;;;4913994;29;20032;-74
2022/04/19 10:26:23;;;;;;;10.27;6.00;;;21.60;47.00;;;;;;4914152;29;20027;-74
2022/04/19 10:28:54;;;;;;;19.13;11.18;;;21.50;45.10;;;;;;4914863;29;20059;-73
2022/04/19 10:31:30;;;;;;;17.52;8.75;;;21.50;43.90;;;;;;4915448;29;20106;-74
2022/04/19 10:34:04;;;;;;;19.90;7.93;;;21.40;44.60;;;;;;4898294;29;20385;-73
2022/04/19 10:36:39;;;;;;;13.07;6.78;;;21.50;42.40;;;;;;4915311;29;20099;-73
2022/04/19 10:39:11;;;;;;;8.40;4.40;;;21.40;41.70;;;;;;4914820;29;20035;-73
2022/04/19 10:41:57;;;;;;;12.60;5.65;;;21.40;42.60;;;;;;4914984;29;20401;-73
2022/04/19 10:44:31;;;;;;;10.13;4.90;;;21.40;42.60;;;;;;4913954;29;20060;-72
2022/04/19 10:47:11;;;;;;;6.75;3.30;;;21.30;42.10;;;;;;4915017;29;20032;-73
2022/04/19 10:50:01;;;;;;;7.47;3.47;;;21.30;41.90;;;;;;4915083;29;20084;-73
2022/04/19 10:52:39;;;;;;;7.30;3.00;;;21.30;38.90;;;;;;4915210;29;20504;-73
2022/04/19 10:55:14;;;;;;;8.73;3.85;;;21.30;40.30;;;;;;4913912;29;20044;-73
2022/04/19 10:58:06;;;;;;;7.07;3.67;;;21.20;38.60;;;;;;4914583;29;20112;-73
2022/04/19 11:00:34;;;;;;;11.13;3.15;;;21.20;39.60;;;;;;4931388;29;20493;-73
2022/04/19 11:03:02;;;;;;;9.40;4.88;;;21.20;40.00;;;;;;4912040;29;20039;-73
2022/04/19 11:05:46;;;;;;;11.45;4.38;;;21.20;41.30;;;;;;4914021;29;20040;-73
2022/04/19 11:08:27;;;;;;;13.68;3.53;;;21.20;42.20;;;;;;4926723;29;20047;-76
2022/04/19 11:10:55;;;;;;;9.35;3.70;;;21.30;39.40;;;;;;4932620;29;20516;-76
2022/04/19 11:13:22;;;;;;;12.30;3.10;;;21.30;40.60;;;;;;4933687;29;20039;-76
2022/04/19 11:15:58;;;;;;;8.13;3.35;;;21.20;38.60;;;;;;4933850;29;20055;-77
2022/04/19 11:18:29;;;;;;;11.73;2.80;;;21.20;39.50;;;;;;4933372;29;20049;-73
2022/04/19 11:20:57;;;;;;;15.68;2.65;;;21.10;37.40;;;;;;4933672;29;20023;-73
2022/04/19 11:23:25;;;;;;;9.82;2.70;;;21.10;38.20;;;;;;4934106;29;20020;-75
2022/04/19 11:25:52;;;;;;;16.50;2.35;;;21.20;39.10;;;;;;4932432;29;20480;-75
2022/04/19 11:28:18;;;;;;;14.43;2.50;;;21.20;39.80;;;;;;4933255;29;20031;-75
2022/04/19 11:31:05;;;;;;;10.32;2.80;;;21.30;39.20;;;;;;4932594;29;20488;-75
2022/04/19 11:33:33;;;;;;;9.93;2.70;;;21.30;39.30;;;;;;4918880;29;20032;-75
2022/04/19 11:36:11;;;;;;;7.72;1.90;;;21.30;39.80;;;;;;4931827;29;20031;-75
2022/04/19 11:38:41;;;;;;;8.80;2.17;;;21.30;39.70;;;;;;4933069;29;20404;-75
2022/04/19 11:46:44;;;;;;;12.05;2.40;;;21.30;40.10;;;;;;4933606;29;20035;-74
2022/04/19 11:49:15;;;;;;;9.68;2.67;;;21.30;40.10;;;;;;4933229;29;20078;-74
2022/04/19 11:51:45;;;;;;;10.70;2.78;;;21.40;40.40;;;;;;4934051;29;20039;-74
2022/04/19 11:54:19;;;;;;;11.52;2.80;;;21.40;40.70;;;;;;4936931;29;20027;-74
2022/04/19 11:56:45;;;;;;;10.85;2.78;;;21.40;40.40;;;;;;4936697;29;20024;-74
2022/04/19 11:59:11;;;;;;;12.73;3.10;;;21.30;40.50;;;;;;4935226;29;20043;-74
2022/04/19 12:01:36;;;;;;;11.35;3.10;;;21.40;40.50;;;;;;4937103;29;20031;-74
2022/04/19 12:04:12;;;;;;;7.28;2.65;;;21.40;40.80;;;;;;4935582;29;20028;-74
2022/04/19 12:06:38;;;;;;;12.48;3.33;;;21.40;40.70;;;;;;4936974;29;20053;-74
2022/04/19 12:09:04;;;;;;;9.05;3.33;;;21.40;40.80;;;;;;4934808;29;20567;-74
2022/04/19 12:11:31;;;;;;;11.32;3.42;;;21.40;41.30;;;;;;4935517;29;20159;-75
2022/04/19 12:13:57;;;;;;;11.93;3.80;;;21.40;41.60;;;;;;4919644;29;20028;-75
2022/04/19 12:16:30;;;;;;;13.75;4.25;;;21.40;41.40;;;;;;4935466;29;20520;-74
2022/04/19 12:18:59;;;;;;;16.33;4.72;;;21.40;42.20;;;;;;4934499;29;20032;-75
2022/04/19 12:21:39;;;;;;;14.02;4.07;;;21.40;42.20;;;;;;4936194;29;20039;-74
2022/04/19 12:24:17;;;;;;;13.68;4.78;;;21.40;42.70;;;;;;4936426;29;20416;-75
2022/04/19 12:26:42;;;;;;;14.05;4.80;;;21.40;42.90;;;;;;4936275;29;20040;-74
2022/04/19 12:29:13;;;;;;;14.77;5.93;;;21.40;42.80;;;;;;4936218;29;20043;-75
2022/04/19 12:31:44;;;;;;;17.13;5.72;;;21.40;43.10;;;;;;4935404;29;20460;-75
2022/04/19 12:34:12;;;;;;;18.45;5.75;;;21.50;43.30;;;;;;4934839;29;20034;-74
2022/04/19 12:36:50;;;;;;;18.08;5.22;;;21.40;43.20;;;;;;4935151;29;20032;-74
2022/04/19 12:39:21;;;;;;;16.10;4.65;;;21.40;43.20;;;;;;4934507;29;20028;-75
2022/04/19 12:41:49;;;;;;;14.63;5.28;;;21.40;43.20;;;;;;4936201;29;20028;-74
2022/04/19 12:44:16;;;;;;;15.32;5.13;;;21.40;43.30;;;;;;4935957;29;20342;-74
2022/04/19 12:46:44;;;;;;;13.27;4.78;;;21.50;43.40;;;;;;4934845;29;20662;-74
2022/04/19 12:49:24;;;;;;;16.17;4.47;;;21.40;43.30;;;;;;4934522;29;20500;-74
2022/04/19 12:52:07;;;;;;;15.98;4.72;;;21.40;43.40;;;;;;4935031;29;20063;-75
2022/04/19 12:54:35;;;;;;;15.73;4.70;;;21.40;42.90;;;;;;4935931;29;20507;-75
2022/04/19 13:00:42;;;;;;;24.77;7.80;;;21.50;43.40;;;;;;4935769;29;20032;-75
2022/04/19 13:03:08;;;;;;;23.83;9.00;;;21.50;43.90;;;;;;4934771;29;20126;-75
2022/04/19 13:13:46;;;;;;;18.67;6.07;;;21.50;45.00;;;;;;4935539;29;20433;-74
2022/04/19 13:16:12;;;;;;;18.65;6.68;;;21.50;45.20;;;;;;4935681;29;20082;-74
2022/04/19 13:18:39;;;;;;;18.70;5.93;;;21.50;44.80;;;;;;4935050;29;20032;-74
2022/04/19 13:21:06;;;;;;;15.25;5.65;;;21.50;44.70;;;;;;4935571;29;20512;-75
2022/04/19 13:23:32;;;;;;;15.60;5.60;;;21.50;45.70;;;;;;4935516;29;20560;-74
2022/04/19 13:25:58;;;;;;;16.88;5.05;;;21.50;44.70;;;;;;4935373;29;20347;-75
2022/04/19 13:28:26;;;;;;;17.35;5.82;;;21.50;45.00;;;;;;4933659;29;20032;-74
2022/04/19 13:30:52;;;;;;;14.05;5.22;;;21.50;45.20;;;;;;4934028;29;20385;-75
2022/04/19 13:33:20;;;;;;;14.52;5.20;;;21.50;45.10;;;;;;4933673;29;20051;-75
2022/04/19 13:35:46;;;;;;;13.52;5.25;;;21.50;44.90;;;;;;4935309;29;20419;-75
2022/04/19 13:38:24;;;;;;;15.77;5.90;;;21.50;45.10;;;;;;4934660;29;20035;-75
2022/04/19 13:40:51;;;;;;;14.02;5.15;;;21.50;45.20;;;;;;4935289;29;20079;-75
2022/04/19 13:43:16;;;;;;;17.52;5.20;;;21.50;44.80;;;;;;4918087;29;20465;-75
2022/04/19 13:45:43;;;;;;;14.77;5.18;;;21.50;44.90;;;;;;4933655;29;20023;-75
2022/04/19 13:48:09;;;;;;;13.43;5.18;;;21.50;44.80;;;;;;4934689;29;20086;-75
2022/04/19 13:50:36;;;;;;;15.23;4.82;;;21.50;45.20;;;;;;4934901;29;20485;-75